createdAt,value
2022-12-04T00:01:21.801Z,1.98
2022-12-04T00:03:52.981Z,1.98
2022-12-04T00:06:21.316Z,1.96
2022-12-04T00:08:48.885Z,1.98
2022-12-04T00:11:18.566Z,2.02
2022-12-04T00:13:45.617Z,2.14
2022-12-04T00:16:18.625Z,2.11
2022-12-04T00:18:45.454Z,1.98
2022-12-04T00:21:14.636Z,1.94
2022-12-04T00:23:42.667Z,1.96
2022-12-04T00:26:12.378Z,2.02
2022-12-04T00:28:40.058Z,1.98
2022-12-04T00:31:08.803Z,1.93
2022-12-04T00:33:36.222Z,1.94
2022-12-04T00:36:05.959Z,1.96
2022-12-04T00:38:32.826Z,2.03
2022-12-04T00:41:00.730Z,1.90
2022-12-04T00:43:28.447Z,1.88
2022-12-04T00:45:55.118Z,2.00
2022-12-04T00:48:23.165Z,2.00
2022-12-04T00:50:50.109Z,1.92
2022-12-04T00:53:16.799Z,1.94
2022-12-04T00:55:44.842Z,1.86
2022-12-04T00:58:11.916Z,1.85
2022-12-04T01:00:40.901Z,1.79
2022-12-04T01:03:08.775Z,1.80
2022-12-04T01:05:40.421Z,1.86
2022-12-04T01:08:07.415Z,1.83
2022-12-04T01:10:34.363Z,1.81
2022-12-04T01:13:01.271Z,1.80
2022-12-04T01:15:27.695Z,1.81
2022-12-04T01:17:54.128Z,1.81
2022-12-04T01:20:20.644Z,1.70
2022-12-04T01:22:47.592Z,1.84
2022-12-04T01:25:14.165Z,1.87
2022-12-04T01:27:41.057Z,1.83
2022-12-04T01:30:08.045Z,1.83
2022-12-04T01:32:35.393Z,1.97
2022-12-04T01:35:01.913Z,1.86
2022-12-04T01:37:31.784Z,1.91
2022-12-04T01:39:58.640Z,1.92
2022-12-04T01:42:25.517Z,1.92
2022-12-04T01:45:36.599Z,1.95
2022-12-04T01:48:18.644Z,1.99
2022-12-04T01:50:47.654Z,1.90
2022-12-04T01:53:14.642Z,1.96
2022-12-04T01:55:42.035Z,1.90
2022-12-04T01:58:09.636Z,1.87
2022-12-04T02:00:36.307Z,1.85
2022-12-04T02:03:03.643Z,1.86
2022-12-04T02:05:30.848Z,1.88
2022-12-04T02:08:01.970Z,1.79
2022-12-04T02:10:42.114Z,1.86
2022-12-04T02:13:23.770Z,1.94
2022-12-04T02:16:03.472Z,1.81
2022-12-04T02:18:53.119Z,1.73
2022-12-04T02:21:37.252Z,1.77
2022-12-04T02:24:12.607Z,1.74
2022-12-04T02:27:24.612Z,1.76
2022-12-04T02:30:03.776Z,1.83
2022-12-04T02:33:00.197Z,1.79
2022-12-04T02:35:31.879Z,1.78
2022-12-04T02:38:16.503Z,1.64
2022-12-04T02:41:07.445Z,1.67
2022-12-04T02:43:42.376Z,1.63
2022-12-04T02:46:46.789Z,1.63
2022-12-04T02:49:19.323Z,1.64
2022-12-04T02:51:48.544Z,1.53
2022-12-04T02:54:34.577Z,1.58
2022-12-04T02:57:04.433Z,1.56
2022-12-04T02:59:36.490Z,1.57
2022-12-04T03:02:11.109Z,1.53
2022-12-04T03:04:39.539Z,1.53
2022-12-04T03:07:20.019Z,1.55
2022-12-04T03:09:59.918Z,1.45
2022-12-04T03:12:50.383Z,1.63
2022-12-04T03:15:26.577Z,1.51
2022-12-04T03:18:01.007Z,1.51
2022-12-04T03:20:30.538Z,1.47
2022-12-04T03:23:03.334Z,1.41
2022-12-04T03:25:35.730Z,1.44
2022-12-04T03:28:10.565Z,1.45
2022-12-04T03:30:46.947Z,1.43
2022-12-04T03:33:18.632Z,1.34
2022-12-04T03:36:06.634Z,1.47
2022-12-04T03:38:33.388Z,1.34
2022-12-04T03:41:06.584Z,1.32
2022-12-04T03:44:04.203Z,1.35
2022-12-04T03:46:52.788Z,1.26
2022-12-04T03:49:45.289Z,1.34
2022-12-04T03:52:29.760Z,1.33
2022-12-04T03:55:10.582Z,1.27
2022-12-04T03:57:43.847Z,1.32
2022-12-04T04:00:16.447Z,1.34
2022-12-04T04:02:53.385Z,1.34
2022-12-04T04:05:21.540Z,1.35
2022-12-04T04:07:56.497Z,1.39
2022-12-04T04:10:26.482Z,1.43
2022-12-04T04:13:20.373Z,1.44
2022-12-04T04:16:13.980Z,1.34
2022-12-04T04:19:01.776Z,1.32
2022-12-04T04:21:51.843Z,1.29
2022-12-04T04:24:42.751Z,1.22
2022-12-04T04:27:09.484Z,1.25
2022-12-04T04:29:36.711Z,1.22
2022-12-04T04:32:18.918Z,1.24
2022-12-04T04:34:54.954Z,1.20
2022-12-04T04:37:26.819Z,1.16
2022-12-04T04:40:11.638Z,1.18
2022-12-04T04:42:54.581Z,1.18
2022-12-04T04:45:27.466Z,1.07
2022-12-04T04:48:00.183Z,1.06
2022-12-04T04:50:27.620Z,1.05
2022-12-04T04:53:01.298Z,1.10
2022-12-04T04:55:29.130Z,1.10
2022-12-04T04:58:06.667Z,1.21
2022-12-04T05:00:33.567Z,1.21
2022-12-04T05:02:59.978Z,1.27
2022-12-04T05:05:26.590Z,1.20
2022-12-04T05:07:54.663Z,1.13
2022-12-04T05:10:21.510Z,1.15
2022-12-04T05:12:48.554Z,1.10
2022-12-04T05:15:15.375Z,1.15
2022-12-04T05:17:41.754Z,1.10
2022-12-04T05:20:08.691Z,1.19
2022-12-04T05:22:37.068Z,1.01
2022-12-04T05:25:04.564Z,0.82
2022-12-04T05:27:32.420Z,0.77
2022-12-04T05:29:59.239Z,0.75
2022-12-04T05:32:28.007Z,0.85
2022-12-04T05:34:56.105Z,0.74
2022-12-04T05:37:23.364Z,0.72
2022-12-04T05:39:49.768Z,0.67
2022-12-04T05:42:16.834Z,0.68
2022-12-04T05:44:43.457Z,0.68
2022-12-04T05:47:10.023Z,0.69
2022-12-04T05:49:36.648Z,0.70
2022-12-04T05:52:04.928Z,0.56
2022-12-04T05:54:31.829Z,0.62
2022-12-04T05:56:58.434Z,0.56
2022-12-04T05:59:25.192Z,0.53
2022-12-04T06:01:52.184Z,0.62
2022-12-04T06:04:18.717Z,0.60
2022-12-04T06:06:45.339Z,0.51
2022-12-04T06:09:12.318Z,0.56
2022-12-04T06:14:10.522Z,0.62
2022-12-04T06:16:40.445Z,0.63
2022-12-04T06:19:12.708Z,0.60
2022-12-04T06:21:40.736Z,0.68
2022-12-04T06:24:08.613Z,0.63
2022-12-04T06:26:35.127Z,0.71
2022-12-04T06:29:01.628Z,0.68
2022-12-04T06:31:29.676Z,0.63
2022-12-04T06:33:57.873Z,0.64
2022-12-04T06:36:24.974Z,0.74
2022-12-04T06:38:55.337Z,0.82
2022-12-04T06:41:22.742Z,0.80
2022-12-04T06:43:51.526Z,0.69
2022-12-04T06:46:21.006Z,0.72
2022-12-04T06:48:48.176Z,0.64
2022-12-04T06:51:17.655Z,0.64
2022-12-04T06:53:44.555Z,0.59
2022-12-04T06:56:14.306Z,0.75
2022-12-04T06:58:42.319Z,0.67
2022-12-04T07:01:11.491Z,0.63
2022-12-04T07:03:38.539Z,0.62
2022-12-04T07:06:25.913Z,0.64
2022-12-04T07:09:14.071Z,0.64
2022-12-04T07:11:41.408Z,0.80
2022-12-04T07:14:08.392Z,0.77
2022-12-04T07:16:40.399Z,0.78
2022-12-04T07:19:09.826Z,0.82
2022-12-04T07:21:36.298Z,0.80
2022-12-04T07:24:03.008Z,0.81
2022-12-04T07:26:30.571Z,0.71
2022-12-04T07:28:58.162Z,0.76
2022-12-04T07:31:27.040Z,0.82
2022-12-04T07:33:54.576Z,0.77
2022-12-04T07:36:22.486Z,0.91
2022-12-04T07:38:49.816Z,0.96
2022-12-04T07:41:17.418Z,0.91
2022-12-04T07:43:44.793Z,0.81
2022-12-04T07:46:18.259Z,0.89
2022-12-04T07:48:45.039Z,0.80
2022-12-04T07:51:12.891Z,0.82
2022-12-04T07:53:40.342Z,0.94
2022-12-04T07:56:07.787Z,0.92
2022-12-04T07:58:35.050Z,1.01
2022-12-04T08:01:10.896Z,1.01
2022-12-04T08:03:43.523Z,0.98
2022-12-04T08:06:13.563Z,1.02
2022-12-04T08:08:40.368Z,1.02
2022-12-04T08:11:08.865Z,1.01
2022-12-04T08:13:36.261Z,1.06
2022-12-04T08:16:03.312Z,1.03
2022-12-04T08:18:30.900Z,1.11
2022-12-04T08:21:12.415Z,1.08
2022-12-04T08:23:40.433Z,0.96
2022-12-04T08:26:08.015Z,0.86
2022-12-04T08:28:35.314Z,1.01
2022-12-04T08:31:07.108Z,0.98
2022-12-04T08:33:34.375Z,0.97
2022-12-04T08:36:03.075Z,0.98
2022-12-04T08:38:30.401Z,1.07
2022-12-04T08:41:01.186Z,1.00
2022-12-04T08:43:27.824Z,1.08
2022-12-04T08:45:58.357Z,0.99
2022-12-04T08:48:25.683Z,0.99
2022-12-04T08:50:52.542Z,0.97
2022-12-04T08:53:19.771Z,0.93
2022-12-04T08:55:46.159Z,1.00
2022-12-04T08:58:13.008Z,0.98
2022-12-04T09:00:39.533Z,0.98
2022-12-04T09:03:06.292Z,1.04
2022-12-04T09:05:32.779Z,1.05
2022-12-04T09:07:59.204Z,1.10
2022-12-04T09:10:25.680Z,1.07
2022-12-04T09:12:52.549Z,1.11
2022-12-04T09:15:19.210Z,1.14
2022-12-04T09:17:45.711Z,1.20
2022-12-04T09:20:12.638Z,1.17
2022-12-04T09:23:02.176Z,1.11
2022-12-04T09:25:26.394Z,1.13
2022-12-04T09:27:53.042Z,1.15
2022-12-04T09:30:19.745Z,1.16
2022-12-04T09:32:46.653Z,1.17
2022-12-04T09:35:13.269Z,1.05
2022-12-04T09:37:40.029Z,1.11
2022-12-04T09:40:07.886Z,1.35
2022-12-04T09:42:56.921Z,1.50
2022-12-04T09:45:26.353Z,1.46
2022-12-04T09:48:02.103Z,1.62
2022-12-04T09:50:37.588Z,1.65
2022-12-04T09:53:14.041Z,1.64
2022-12-04T09:56:01.979Z,1.73
2022-12-04T09:58:59.736Z,1.73
2022-12-04T10:01:32.982Z,1.77
2022-12-04T10:04:05.719Z,1.89
2022-12-04T10:06:55.271Z,2.11
2022-12-04T10:09:44.081Z,2.29
2022-12-04T10:12:25.602Z,2.14
2022-12-04T10:15:08.733Z,1.85
2022-12-04T10:17:57.190Z,1.89
2022-12-04T10:20:24.084Z,1.81
2022-12-04T10:23:13.745Z,1.89
2022-12-04T10:25:42.077Z,1.96
2022-12-04T10:28:27.479Z,1.88
2022-12-04T10:30:57.810Z,2.02
2022-12-04T10:33:35.554Z,2.00
2022-12-04T10:36:02.798Z,1.93
2022-12-04T10:39:03.405Z,1.89
2022-12-04T10:41:47.907Z,1.84
2022-12-04T10:44:17.007Z,1.90
2022-12-04T10:46:46.322Z,2.06
2022-12-04T10:49:24.640Z,2.08
2022-12-04T10:51:52.031Z,2.00
2022-12-04T10:54:43.271Z,2.11
2022-12-04T10:57:11.428Z,2.20
2022-12-04T10:59:51.350Z,2.17
2022-12-04T11:02:25.647Z,2.01
2022-12-04T11:04:56.977Z,2.10
2022-12-04T11:07:30.091Z,2.15
2022-12-04T11:10:03.336Z,2.19
2022-12-04T11:12:31.305Z,2.05
2022-12-04T11:15:06.951Z,2.26
2022-12-04T11:17:34.376Z,2.33
2022-12-04T11:20:21.203Z,2.34
2022-12-04T11:22:52.401Z,2.31
2022-12-04T11:25:20.675Z,2.46
2022-12-04T11:27:51.240Z,2.35
2022-12-04T11:30:35.959Z,2.31
2022-12-04T11:33:04.443Z,2.26
2022-12-04T11:35:32.160Z,2.23
2022-12-04T11:38:08.215Z,2.04
2022-12-04T11:40:36.337Z,2.23
2022-12-04T11:43:14.050Z,2.47
2022-12-04T11:45:40.789Z,2.42
2022-12-04T11:48:16.584Z,2.47
2022-12-04T11:51:06.924Z,2.54
2022-12-04T11:53:56.200Z,2.57
2022-12-04T11:56:29.051Z,2.49
2022-12-04T11:59:15.697Z,2.29
2022-12-04T12:02:13.212Z,2.32
2022-12-04T12:04:42.934Z,2.52
2022-12-04T12:07:21.379Z,2.48
2022-12-04T12:09:59.857Z,2.56
2022-12-04T12:12:36.326Z,2.70
2022-12-04T12:15:24.836Z,2.52
2022-12-04T12:18:36.335Z,2.26
2022-12-04T12:21:12.583Z,2.23
2022-12-04T12:24:08.667Z,2.20
2022-12-04T12:27:06.987Z,2.23
2022-12-04T12:29:57.348Z,2.22
2022-12-04T12:32:30.306Z,2.28
2022-12-04T12:34:59.208Z,2.30
2022-12-04T12:37:41.588Z,2.24
2022-12-04T12:40:33.056Z,2.20
2022-12-04T12:43:11.128Z,2.28
2022-12-04T12:45:50.321Z,2.26
2022-12-04T12:48:26.536Z,2.22
2022-12-04T12:51:22.195Z,2.12
2022-12-04T12:53:51.315Z,2.11
2022-12-04T12:56:21.858Z,2.16
2022-12-04T12:58:54.228Z,2.12
2022-12-04T13:01:45.365Z,2.14
2022-12-04T13:04:36.430Z,2.10
2022-12-04T13:07:24.928Z,2.14
2022-12-04T13:10:24.118Z,2.22
2022-12-04T13:12:58.001Z,2.20
2022-12-04T13:15:41.192Z,2.17
2022-12-04T13:18:15.506Z,2.19
2022-12-04T13:20:53.538Z,2.16
2022-12-04T13:23:36.030Z,2.15
2022-12-04T13:26:42.564Z,2.14
2022-12-04T13:29:41.188Z,2.24
2022-12-04T13:32:42.951Z,2.22
2022-12-04T13:35:42.595Z,2.09
2022-12-04T13:38:34.534Z,2.14
2022-12-04T13:41:17.017Z,2.08
2022-12-04T13:43:44.219Z,2.13
2022-12-04T13:46:22.953Z,2.15
2022-12-04T13:48:49.460Z,2.17
2022-12-04T13:51:16.072Z,2.14
2022-12-04T13:53:43.584Z,2.13
2022-12-04T13:56:30.881Z,2.08
2022-12-04T13:59:01.995Z,2.11
2022-12-04T14:01:38.324Z,2.11
2022-12-04T14:04:05.900Z,2.19
2022-12-04T14:06:40.995Z,2.30
2022-12-04T14:09:20.628Z,2.33
2022-12-04T14:11:52.809Z,2.15
2022-12-04T14:14:32.364Z,2.10
2022-12-04T14:16:59.793Z,2.10
2022-12-04T14:19:28.697Z,2.21
2022-12-04T14:21:55.765Z,2.25
2022-12-04T14:24:25.363Z,2.27
2022-12-04T14:29:47.415Z,2.04
2022-12-04T14:32:23.098Z,2.08
2022-12-04T14:34:50.298Z,2.16
2022-12-04T14:37:40.718Z,2.14
2022-12-04T14:40:20.476Z,2.17
2022-12-04T14:42:48.901Z,2.19
2022-12-04T14:45:31.773Z,2.23
2022-12-04T14:48:31.314Z,2.15
2022-12-04T14:51:16.820Z,2.20
2022-12-04T14:53:49.018Z,2.21
2022-12-04T14:56:41.550Z,2.26
2022-12-04T14:59:23.417Z,2.22
2022-12-04T15:01:53.591Z,2.25
2022-12-04T15:04:34.581Z,2.28
2022-12-04T15:07:02.425Z,2.29
2022-12-04T15:09:48.209Z,2.22
2022-12-04T15:12:36.965Z,2.13
2022-12-04T15:15:27.744Z,2.09
2022-12-04T15:18:02.017Z,2.07
2022-12-04T15:20:37.415Z,2.19
2022-12-04T15:23:06.394Z,2.10
2022-12-04T15:25:54.378Z,2.09
2022-12-04T15:28:31.274Z,2.09
2022-12-04T15:31:01.695Z,2.07
2022-12-04T15:33:35.535Z,2.07
2022-12-04T15:36:08.195Z,2.21
2022-12-04T15:38:36.434Z,2.10
2022-12-04T15:41:03.060Z,2.11
2022-12-04T15:43:32.024Z,2.17
2022-12-04T15:45:59.384Z,2.18
2022-12-04T15:48:30.985Z,2.12
2022-12-04T15:51:08.733Z,2.13
2022-12-04T15:53:38.988Z,2.14
2022-12-04T15:56:09.543Z,2.24
2022-12-04T15:58:39.205Z,2.21
2022-12-04T16:01:09.012Z,2.21
2022-12-04T16:03:41.897Z,2.26
2022-12-04T16:06:29.119Z,2.35
2022-12-04T16:08:58.867Z,2.30
2022-12-04T16:11:37.754Z,2.30
2022-12-04T16:14:13.079Z,2.29
2022-12-04T16:16:44.421Z,2.34
2022-12-04T16:19:30.287Z,2.29
2022-12-04T16:21:57.600Z,2.27
2022-12-04T16:24:24.125Z,2.26
2022-12-04T16:26:52.585Z,2.30
2022-12-04T16:29:19.322Z,2.26
2022-12-04T16:31:45.802Z,2.27
2022-12-04T16:34:13.200Z,2.26
2022-12-04T16:36:40.286Z,2.34
2022-12-04T16:39:06.914Z,2.35
2022-12-04T16:41:34.542Z,2.30
2022-12-04T16:44:01.382Z,2.34
2022-12-04T16:46:29.527Z,2.36
2022-12-04T16:48:56.781Z,2.31
2022-12-04T16:51:26.986Z,2.32
2022-12-04T16:53:57.972Z,2.28
2022-12-04T16:56:24.656Z,2.26
2022-12-04T16:58:51.174Z,2.22
2022-12-04T17:01:26.984Z,2.11
2022-12-04T17:03:53.648Z,2.13
2022-12-04T17:06:20.439Z,2.14
2022-12-04T17:08:47.199Z,2.06
2022-12-04T17:11:16.052Z,2.05
2022-12-04T17:13:43.300Z,2.05
2022-12-04T17:16:14.015Z,2.05
2022-12-04T17:18:42.746Z,2.05
2022-12-04T17:21:10.852Z,2.06
2022-12-04T17:23:38.236Z,2.04
2022-12-04T17:26:10.850Z,2.09
2022-12-04T17:28:38.454Z,2.02
2022-12-04T17:31:13.622Z,2.04
2022-12-04T17:33:41.176Z,2.06
2022-12-04T17:36:19.823Z,2.05
2022-12-04T17:38:46.747Z,2.00
2022-12-04T17:41:15.077Z,2.01
2022-12-04T17:43:43.094Z,1.99
2022-12-04T17:46:11.725Z,1.97
2022-12-04T17:48:39.081Z,1.93
2022-12-04T17:51:11.295Z,1.89
2022-12-04T17:53:38.453Z,1.90
2022-12-04T17:56:11.336Z,1.91
2022-12-04T17:58:38.754Z,1.88
2022-12-04T18:01:07.976Z,1.91
2022-12-04T18:03:35.764Z,1.96
2022-12-04T18:06:14.411Z,1.96
2022-12-04T18:08:45.280Z,2.05
2022-12-04T18:11:16.636Z,2.02
2022-12-04T18:13:43.550Z,1.97
2022-12-04T18:16:11.305Z,1.95
2022-12-04T18:18:38.835Z,1.91
2022-12-04T18:21:11.082Z,1.90
2022-12-04T18:23:44.443Z,2.00
2022-12-04T18:26:15.111Z,1.97
2022-12-04T18:28:43.365Z,1.90
2022-12-04T18:31:10.652Z,1.93
2022-12-04T18:33:39.590Z,1.92
2022-12-04T18:36:09.294Z,1.95
2022-12-04T18:38:35.839Z,2.00
2022-12-04T18:41:04.043Z,1.99
2022-12-04T18:43:38.681Z,2.01
2022-12-04T18:46:08.466Z,2.00
2022-12-04T18:48:36.771Z,2.01
2022-12-04T18:51:24.662Z,2.02
2022-12-04T18:53:53.025Z,2.04
2022-12-04T18:56:19.938Z,2.02
2022-12-04T18:58:46.934Z,2.03
2022-12-04T19:01:16.052Z,1.96
2022-12-04T19:03:42.606Z,1.97
2022-12-04T19:06:09.120Z,1.98
2022-12-04T19:08:41.407Z,1.96
2022-12-04T19:11:12.865Z,1.96
2022-12-04T19:13:39.655Z,2.01
2022-12-04T19:16:12.338Z,2.00
2022-12-04T19:18:38.799Z,2.00
2022-12-04T19:21:06.382Z,2.04
2022-12-04T19:23:32.767Z,2.02
2022-12-04T19:26:00.582Z,2.05
2022-12-04T19:28:27.942Z,2.04
2022-12-04T19:30:54.852Z,2.03
2022-12-04T19:33:21.983Z,2.06
2022-12-04T19:36:03.632Z,2.04
2022-12-04T19:38:32.014Z,2.00
2022-12-04T19:41:13.508Z,2.02
2022-12-04T19:43:45.691Z,2.00
2022-12-04T19:46:15.295Z,1.96
2022-12-04T19:48:42.676Z,2.02
2022-12-04T19:51:12.047Z,2.01
2022-12-04T19:53:41.056Z,2.02
2022-12-04T19:56:13.800Z,2.00
2022-12-04T19:58:41.185Z,2.02
2022-12-04T20:01:10.640Z,2.02
2022-12-04T20:03:37.590Z,2.04
2022-12-04T20:06:06.497Z,2.07
2022-12-04T20:08:34.146Z,2.02
2022-12-04T20:11:11.913Z,1.97
2022-12-04T20:13:39.922Z,1.96
2022-12-04T20:16:09.418Z,1.98
2022-12-04T20:18:37.782Z,1.97
2022-12-04T20:21:10.714Z,2.07
2022-12-04T20:23:49.837Z,2.07
2022-12-04T20:26:21.940Z,2.10
2022-12-04T20:28:49.094Z,2.12
2022-12-04T20:31:24.146Z,2.11
2022-12-04T20:33:52.926Z,2.02
2022-12-04T20:36:21.770Z,2.07
2022-12-04T20:38:49.737Z,2.22
2022-12-04T20:41:16.310Z,2.06
2022-12-04T20:43:43.492Z,2.01
2022-12-04T20:46:25.909Z,2.09
2022-12-04T20:48:53.561Z,2.31
2022-12-04T20:51:24.922Z,2.40
2022-12-04T20:53:53.382Z,2.28
2022-12-04T20:56:25.702Z,2.28
2022-12-04T20:58:57.814Z,2.38
2022-12-04T21:01:25.053Z,2.28
2022-12-04T21:03:53.017Z,2.25
2022-12-04T21:06:31.017Z,2.17
2022-12-04T21:09:02.084Z,2.09
2022-12-04T21:11:36.619Z,2.24
2022-12-04T21:14:25.710Z,2.22
2022-12-04T21:16:52.476Z,2.31
2022-12-04T21:19:21.433Z,2.15
2022-12-04T21:21:48.663Z,2.14
2022-12-04T21:24:18.274Z,2.18
2022-12-04T21:26:45.727Z,2.19
2022-12-04T21:29:12.159Z,2.19
2022-12-04T21:31:39.661Z,2.16
2022-12-04T21:34:08.621Z,2.24
2022-12-04T21:36:35.058Z,2.22
2022-12-04T21:39:01.746Z,2.27
2022-12-04T21:41:46.975Z,2.31
2022-12-04T21:44:16.847Z,2.16
2022-12-04T21:46:44.446Z,2.23
2022-12-04T21:49:11.916Z,2.16
2022-12-04T21:51:56.948Z,2.33
2022-12-04T21:54:25.581Z,2.37
2022-12-04T21:56:52.121Z,2.32
2022-12-04T21:59:18.602Z,2.39
2022-12-04T22:01:45.644Z,2.34
2022-12-04T22:04:12.677Z,2.22
2022-12-04T22:06:39.610Z,2.20
2022-12-04T22:09:09.807Z,2.23
2022-12-04T22:11:36.916Z,2.27
2022-12-04T22:14:03.765Z,2.29
2022-12-04T22:16:31.359Z,2.36
2022-12-04T22:18:59.907Z,2.25
2022-12-04T22:21:26.915Z,2.24
2022-12-04T22:24:01.453Z,2.24
2022-12-04T22:26:29.567Z,2.18
2022-12-04T22:28:57.449Z,2.10
2022-12-04T22:31:28.301Z,2.01
2022-12-04T22:33:57.143Z,1.98
2022-12-04T22:36:27.058Z,2.08
2022-12-04T22:39:10.732Z,2.04
2022-12-04T22:41:38.414Z,2.10
2022-12-04T22:44:05.500Z,2.05
2022-12-04T22:46:32.569Z,1.99
2022-12-04T22:48:59.824Z,1.91
2022-12-04T22:51:27.405Z,1.88
2022-12-04T22:53:55.979Z,1.91
2022-12-04T22:56:27.080Z,1.83
2022-12-04T22:58:54.495Z,1.87
2022-12-04T23:01:24.401Z,1.83
2022-12-04T23:03:51.707Z,1.86
2022-12-04T23:06:19.286Z,1.88
2022-12-04T23:08:46.588Z,1.74
2022-12-04T23:11:17.133Z,1.68
2022-12-04T23:13:44.407Z,1.69
2022-12-04T23:16:13.261Z,1.78
2022-12-04T23:18:43.415Z,1.91
2022-12-04T23:21:12.018Z,1.86
2022-12-04T23:23:40.614Z,1.78
2022-12-04T23:26:11.439Z,1.78
2022-12-04T23:28:38.568Z,1.68
2022-12-04T23:31:05.832Z,1.67
2022-12-04T23:33:33.490Z,1.67
2022-12-04T23:36:01.482Z,1.72
2022-12-04T23:38:29.206Z,1.71
2022-12-04T23:41:05.663Z,1.90
2022-12-04T23:43:33.179Z,1.75
2022-12-04T23:46:03.360Z,1.71
2022-12-04T23:48:32.522Z,1.66
2022-12-04T23:50:59.093Z,1.71
2022-12-04T23:53:25.703Z,1.71
2022-12-04T23:56:00.436Z,1.64
2022-12-04T23:58:27.079Z,1.74
